createdAt,value
2022-12-18T00:00:19.757Z,23.40
2022-12-18T00:01:19.594Z,24.50
2022-12-18T00:02:19.516Z,21.50
2022-12-18T00:03:19.587Z,21.60
2022-12-18T00:04:19.647Z,20.60
2022-12-18T00:05:19.499Z,20.70
2022-12-18T00:06:19.449Z,20.90
2022-12-18T00:07:19.780Z,21.30
2022-12-18T00:08:19.436Z,19.10
2022-12-18T00:09:19.451Z,20.00
2022-12-18T00:10:19.401Z,20.60
2022-12-18T00:11:19.435Z,21.10
2022-12-18T00:13:19.599Z,19.60
2022-12-18T00:14:19.390Z,19.60
2022-12-18T00:15:19.596Z,17.10
2022-12-18T00:16:19.432Z,17.70
2022-12-18T00:17:19.356Z,16.70
2022-12-18T00:18:20.682Z,16.90
2022-12-18T00:19:19.357Z,17.80
2022-12-18T00:20:19.359Z,17.30
2022-12-18T00:21:19.317Z,16.70
2022-12-18T00:22:19.297Z,14.90
2022-12-18T00:23:19.296Z,14.80
2022-12-18T00:24:19.253Z,14.40
2022-12-18T00:25:19.489Z,12.60
2022-12-18T00:26:19.239Z,12.40
2022-12-18T00:27:19.256Z,12.10
2022-12-18T00:28:19.226Z,9.80
2022-12-18T00:29:19.436Z,12.70
2022-12-18T00:30:19.208Z,12.50
2022-12-18T00:31:19.306Z,11.60
2022-12-18T00:32:19.360Z,14.50
2022-12-18T00:33:19.186Z,12.40
2022-12-18T00:34:19.151Z,10.10
2022-12-18T00:35:19.158Z,10.30
2022-12-18T00:36:19.376Z,10.80
2022-12-18T00:37:20.433Z,10.60
2022-12-18T00:38:19.119Z,7.80
2022-12-18T00:39:19.129Z,8.00
2022-12-18T00:40:19.072Z,9.90
2022-12-18T00:41:19.298Z,8.70
2022-12-18T00:42:19.077Z,7.90
2022-12-18T00:43:19.087Z,8.30
2022-12-18T00:44:19.057Z,8.50
2022-12-18T00:45:19.060Z,7.40
2022-12-18T00:46:19.243Z,7.60
2022-12-18T00:47:19.021Z,7.20
2022-12-18T00:48:18.981Z,7.30
2022-12-18T00:49:19.022Z,7.10
2022-12-18T00:50:18.960Z,6.50
2022-12-18T00:51:18.971Z,5.80
2022-12-18T00:52:18.968Z,5.30
2022-12-18T00:53:18.979Z,6.20
2022-12-18T00:54:18.957Z,5.50
2022-12-18T00:55:18.958Z,5.00
2022-12-18T00:56:18.935Z,5.60
2022-12-18T00:57:18.925Z,5.40
2022-12-18T00:58:18.874Z,4.70
2022-12-18T00:59:19.115Z,5.00
2022-12-18T01:00:18.860Z,4.20
2022-12-18T01:01:19.124Z,4.70
2022-12-18T01:02:19.000Z,4.60
2022-12-18T01:03:18.922Z,4.50
2022-12-18T01:04:18.841Z,4.80
2022-12-18T01:05:18.837Z,4.20
2022-12-18T01:06:18.808Z,4.10
2022-12-18T01:07:18.792Z,4.10
2022-12-18T01:08:18.971Z,4.00
2022-12-18T01:09:18.771Z,3.90
2022-12-18T01:10:18.742Z,4.30
2022-12-18T01:11:18.743Z,3.40
2022-12-18T01:12:18.723Z,3.30
2022-12-18T01:13:18.722Z,3.50
2022-12-18T01:14:18.938Z,4.20
2022-12-18T01:15:18.701Z,3.90
2022-12-18T01:16:18.737Z,3.50
2022-12-18T01:17:18.702Z,3.60
2022-12-18T01:18:18.652Z,3.20
2022-12-18T01:19:18.935Z,3.10
2022-12-18T01:20:18.633Z,3.60
2022-12-18T01:21:18.651Z,3.70
2022-12-18T01:22:18.637Z,3.80
2022-12-18T01:23:18.612Z,3.50
2022-12-18T01:24:18.584Z,3.80
2022-12-18T01:25:18.833Z,3.50
2022-12-18T01:26:18.572Z,3.50
2022-12-18T01:27:18.584Z,3.70
2022-12-18T01:28:18.542Z,3.50
2022-12-18T01:29:18.572Z,3.60
2022-12-18T01:30:18.731Z,3.20
2022-12-18T01:31:18.568Z,3.40
2022-12-18T01:32:18.502Z,3.40
2022-12-18T01:33:18.503Z,3.10
2022-12-18T01:34:18.529Z,3.00
2022-12-18T01:35:18.509Z,3.40
2022-12-18T01:36:18.652Z,3.10
2022-12-18T01:37:18.461Z,3.20
2022-12-18T01:38:18.693Z,3.00
2022-12-18T01:39:18.443Z,3.50
2022-12-18T01:40:18.405Z,3.30
2022-12-18T01:41:18.439Z,3.00
2022-12-18T01:42:18.421Z,3.30
2022-12-18T01:43:18.401Z,3.30
2022-12-18T01:44:18.364Z,3.60
2022-12-18T01:45:18.421Z,3.20
2022-12-18T01:46:18.409Z,3.60
2022-12-18T01:47:18.392Z,3.10
2022-12-18T01:48:18.350Z,3.00
2022-12-18T01:49:18.324Z,3.60
2022-12-18T01:50:18.313Z,3.20
2022-12-18T01:51:18.593Z,3.40
2022-12-18T01:52:18.283Z,3.20
2022-12-18T01:53:18.338Z,3.20
2022-12-18T01:54:18.291Z,3.50
2022-12-18T01:55:18.312Z,3.40
2022-12-18T01:56:18.234Z,3.00
2022-12-18T01:57:18.273Z,3.10
2022-12-18T01:58:18.240Z,3.10
2022-12-18T01:59:18.246Z,3.00
2022-12-18T02:00:18.198Z,3.40
2022-12-18T02:01:18.323Z,3.10
2022-12-18T02:02:18.228Z,3.00
2022-12-18T02:03:18.245Z,3.00
2022-12-18T02:04:18.155Z,3.00
2022-12-18T02:05:18.201Z,3.00
2022-12-18T02:06:18.171Z,3.20
2022-12-18T02:07:18.134Z,3.20
2022-12-18T02:08:18.516Z,2.90
2022-12-18T02:09:18.130Z,3.20
2022-12-18T02:10:18.084Z,3.40
2022-12-18T02:11:18.109Z,3.10
2022-12-18T02:12:18.081Z,3.30
2022-12-18T02:13:18.255Z,3.10
2022-12-18T02:14:18.062Z,3.40
2022-12-18T02:15:18.378Z,3.10
2022-12-18T02:16:18.085Z,3.20
2022-12-18T02:17:18.041Z,3.10
2022-12-18T02:18:18.269Z,2.80
2022-12-18T02:19:18.275Z,3.00
2022-12-18T02:20:17.994Z,2.90
2022-12-18T02:21:17.966Z,3.20
2022-12-18T02:22:17.958Z,3.30
2022-12-18T02:23:17.939Z,2.90
2022-12-18T02:24:17.955Z,3.10
2022-12-18T02:25:18.242Z,3.20
2022-12-18T02:26:17.943Z,2.80
2022-12-18T02:27:17.898Z,3.10
2022-12-18T02:28:19.574Z,3.00
2022-12-18T02:29:18.232Z,3.10
2022-12-18T02:30:17.894Z,3.10
2022-12-18T02:31:17.909Z,3.00
2022-12-18T02:32:17.846Z,3.20
2022-12-18T02:33:17.828Z,3.20
2022-12-18T02:34:17.852Z,3.30
2022-12-18T02:35:18.077Z,3.40
2022-12-18T02:36:17.833Z,3.20
2022-12-18T02:37:17.779Z,3.20
2022-12-18T02:38:18.002Z,3.30
2022-12-18T02:39:17.756Z,3.20
2022-12-18T02:40:17.789Z,3.10
2022-12-18T02:41:17.760Z,3.10
2022-12-18T02:42:17.794Z,3.20
2022-12-18T02:43:17.922Z,2.90
2022-12-18T02:44:38.722Z,2.90
2022-12-18T02:45:17.732Z,2.80
2022-12-18T02:46:17.784Z,3.00
2022-12-18T02:47:17.698Z,2.60
2022-12-18T02:48:17.864Z,2.90
2022-12-18T02:49:17.683Z,2.70
2022-12-18T02:50:17.663Z,2.90
2022-12-18T02:51:17.664Z,2.90
2022-12-18T02:52:17.627Z,2.90
2022-12-18T02:53:17.652Z,3.00
2022-12-18T02:54:17.824Z,3.10
2022-12-18T02:55:17.596Z,2.80
2022-12-18T02:56:17.592Z,3.10
2022-12-18T02:57:17.854Z,2.90
2022-12-18T02:58:17.553Z,2.70
2022-12-18T02:59:17.558Z,2.80
2022-12-18T03:00:17.553Z,2.90
2022-12-18T03:01:17.598Z,2.90
2022-12-18T03:02:17.775Z,2.90
2022-12-18T03:03:17.566Z,2.80
2022-12-18T03:04:17.510Z,2.90
2022-12-18T03:05:17.487Z,3.10
2022-12-18T03:06:17.457Z,2.70
2022-12-18T03:07:17.493Z,2.90
2022-12-18T03:08:17.438Z,2.70
2022-12-18T03:09:17.503Z,3.10
2022-12-18T03:10:17.440Z,3.20
2022-12-18T03:11:17.453Z,3.00
2022-12-18T03:12:17.389Z,2.80
2022-12-18T03:13:17.397Z,3.10
2022-12-18T03:14:17.576Z,3.00
2022-12-18T03:15:17.920Z,2.80
2022-12-18T03:16:17.388Z,2.90
2022-12-18T03:17:17.657Z,2.80
2022-12-18T03:18:17.354Z,2.90
2022-12-18T03:19:17.337Z,2.80
2022-12-18T03:20:17.308Z,2.80
2022-12-18T03:21:17.333Z,2.80
2022-12-18T03:22:17.325Z,2.50
2022-12-18T03:23:17.278Z,3.10
2022-12-18T03:24:17.638Z,2.80
2022-12-18T03:25:17.334Z,3.10
2022-12-18T03:26:17.268Z,2.60
2022-12-18T03:27:17.248Z,2.80
2022-12-18T03:28:17.256Z,2.80
2022-12-18T03:29:17.245Z,2.70
2022-12-18T03:30:17.418Z,2.80
2022-12-18T03:31:17.263Z,2.80
2022-12-18T03:32:17.195Z,2.90
2022-12-18T03:33:17.168Z,2.80
2022-12-18T03:34:17.177Z,3.00
2022-12-18T03:35:17.368Z,2.80
2022-12-18T03:36:17.369Z,2.90
2022-12-18T03:37:17.156Z,2.80
2022-12-18T03:38:17.125Z,2.70
2022-12-18T03:39:17.098Z,3.10
2022-12-18T03:40:17.104Z,2.90
2022-12-18T03:41:17.354Z,2.80
2022-12-18T03:42:17.057Z,2.80
2022-12-18T03:43:17.094Z,2.90
2022-12-18T03:44:17.240Z,2.80
2022-12-18T03:45:17.038Z,2.60
2022-12-18T03:46:17.433Z,2.70
2022-12-18T03:47:17.068Z,2.50
2022-12-18T03:48:16.999Z,2.80
2022-12-18T03:49:17.000Z,2.40
2022-12-18T03:50:16.969Z,2.80
2022-12-18T03:51:16.995Z,2.40
2022-12-18T03:52:17.006Z,2.60
2022-12-18T03:53:16.978Z,2.40
2022-12-18T03:54:16.946Z,2.70
2022-12-18T03:55:40.624Z,2.80
2022-12-18T03:56:16.943Z,2.60
2022-12-18T03:57:17.186Z,2.70
2022-12-18T03:58:16.925Z,2.60
2022-12-18T03:59:16.898Z,2.60
2022-12-18T04:00:16.918Z,2.50
2022-12-18T04:01:17.046Z,2.80
2022-12-18T04:02:16.978Z,4.30
2022-12-18T04:03:16.870Z,3.00
2022-12-18T04:04:16.898Z,2.90
2022-12-18T04:05:16.830Z,2.80
2022-12-18T04:06:16.829Z,2.80
2022-12-18T04:07:16.810Z,2.70
2022-12-18T04:08:17.017Z,2.80
2022-12-18T04:09:16.759Z,2.70
2022-12-18T04:10:16.794Z,3.10
2022-12-18T04:11:16.748Z,2.90
2022-12-18T04:12:16.740Z,2.70
2022-12-18T04:13:16.756Z,2.90
2022-12-18T04:14:18.335Z,2.80
2022-12-18T04:15:16.701Z,2.90
2022-12-18T04:16:16.795Z,2.80
2022-12-18T04:17:16.680Z,2.80
2022-12-18T04:18:16.746Z,2.90
2022-12-18T04:19:16.662Z,2.90
2022-12-18T04:20:16.651Z,2.90
2022-12-18T04:21:16.656Z,2.70
2022-12-18T04:22:16.657Z,2.50
2022-12-18T04:23:16.604Z,2.90
2022-12-18T04:24:16.938Z,2.80
2022-12-18T04:25:16.591Z,2.70
2022-12-18T04:26:16.589Z,3.10
2022-12-18T04:27:16.571Z,2.90
2022-12-18T04:28:16.561Z,2.80
2022-12-18T04:29:16.578Z,3.00
2022-12-18T04:30:16.751Z,2.80
2022-12-18T04:31:16.598Z,2.50
2022-12-18T04:32:16.539Z,2.40
2022-12-18T04:33:16.525Z,2.60
2022-12-18T04:34:16.526Z,2.40
2022-12-18T04:35:16.749Z,2.90
2022-12-18T04:36:16.471Z,2.80
2022-12-18T04:37:16.478Z,2.80
2022-12-18T04:38:16.456Z,2.50
2022-12-18T04:39:16.431Z,2.40
2022-12-18T04:40:16.738Z,2.60
2022-12-18T04:41:16.438Z,2.60
2022-12-18T04:42:16.438Z,2.40
2022-12-18T04:43:16.440Z,2.60
2022-12-18T04:44:16.408Z,2.40
2022-12-18T04:45:16.362Z,2.60
2022-12-18T04:46:16.650Z,2.40
2022-12-18T04:47:16.368Z,2.80
2022-12-18T04:48:16.341Z,2.60
2022-12-18T04:49:16.348Z,2.70
2022-12-18T04:50:16.793Z,2.60
2022-12-18T04:51:16.301Z,2.50
2022-12-18T04:52:16.320Z,2.40
2022-12-18T04:53:16.300Z,2.50
2022-12-18T04:54:16.272Z,2.70
2022-12-18T04:55:16.608Z,2.20
2022-12-18T04:56:16.286Z,2.60
2022-12-18T04:57:16.256Z,2.40
2022-12-18T04:58:16.230Z,2.20
2022-12-18T04:59:16.811Z,2.20
2022-12-18T05:00:16.211Z,2.30
2022-12-18T05:01:16.268Z,2.10
2022-12-18T05:02:16.363Z,2.30
2022-12-18T05:03:16.243Z,2.20
2022-12-18T05:04:16.196Z,2.30
2022-12-18T05:05:16.133Z,2.50
2022-12-18T05:06:16.168Z,2.40
2022-12-18T05:07:16.402Z,2.20
2022-12-18T05:08:16.140Z,2.40
2022-12-18T05:09:16.122Z,2.40
2022-12-18T05:10:16.093Z,2.30
2022-12-18T05:11:16.103Z,2.20
2022-12-18T05:12:16.109Z,2.10
2022-12-18T05:13:16.099Z,2.10
2022-12-18T05:14:16.080Z,2.10
2022-12-18T05:15:16.024Z,2.10
2022-12-18T05:16:16.109Z,1.90
2022-12-18T05:17:16.012Z,2.10
2022-12-18T05:18:16.003Z,2.10
2022-12-18T05:19:16.527Z,2.20
2022-12-18T05:20:15.984Z,2.00
2022-12-18T05:21:15.964Z,2.30
2022-12-18T05:22:15.963Z,2.20
2022-12-18T05:23:15.971Z,2.50
2022-12-18T05:24:15.971Z,2.20
2022-12-18T05:25:16.299Z,2.20
2022-12-18T05:26:15.940Z,2.30
2022-12-18T05:27:15.906Z,2.50
2022-12-18T05:28:15.903Z,2.30
2022-12-18T05:29:15.873Z,2.20
2022-12-18T05:30:15.902Z,2.50
2022-12-18T05:31:16.098Z,2.40
2022-12-18T05:32:15.856Z,2.40
2022-12-18T05:33:15.851Z,2.40
2022-12-18T05:34:15.824Z,2.40
2022-12-18T05:35:15.807Z,2.20
2022-12-18T05:36:15.833Z,2.40
2022-12-18T05:37:16.029Z,2.20
2022-12-18T05:38:15.791Z,2.50
2022-12-18T05:39:15.790Z,2.40
2022-12-18T05:40:15.790Z,2.50
2022-12-18T05:41:15.744Z,2.30
2022-12-18T05:42:15.743Z,2.20
2022-12-18T05:43:20.907Z,2.40
2022-12-18T05:44:16.714Z,2.30
2022-12-18T05:45:15.720Z,2.50
2022-12-18T05:46:15.742Z,2.20
2022-12-18T05:47:15.701Z,2.50
2022-12-18T05:48:16.011Z,2.40
2022-12-18T05:49:15.671Z,2.60
2022-12-18T05:50:16.115Z,2.30
2022-12-18T05:51:15.627Z,2.40
2022-12-18T05:52:15.635Z,2.40
2022-12-18T05:53:15.615Z,2.40
2022-12-18T05:54:15.617Z,2.50
2022-12-18T05:55:15.578Z,2.60
2022-12-18T05:56:15.832Z,2.50
2022-12-18T05:57:15.565Z,2.40
2022-12-18T05:58:15.602Z,2.20
2022-12-18T05:59:15.561Z,2.60
2022-12-18T06:00:16.015Z,2.20
2022-12-18T06:01:15.613Z,2.00
2022-12-18T06:02:15.660Z,2.40
2022-12-18T06:03:15.598Z,2.40
2022-12-18T06:04:15.596Z,2.30
2022-12-18T06:05:15.492Z,2.50
2022-12-18T06:06:15.835Z,2.60
2022-12-18T06:07:15.474Z,2.40
2022-12-18T06:08:15.479Z,2.40
2022-12-18T06:09:15.455Z,2.40
2022-12-18T06:10:15.427Z,2.60
2022-12-18T06:11:15.431Z,2.50
2022-12-18T06:12:15.615Z,2.50
2022-12-18T06:13:15.745Z,2.40
2022-12-18T06:14:15.384Z,2.40
2022-12-18T06:15:15.364Z,2.40
2022-12-18T06:16:15.427Z,2.30
2022-12-18T06:17:15.373Z,2.40
2022-12-18T06:18:15.336Z,2.60
2022-12-18T06:19:15.516Z,2.60
2022-12-18T06:20:15.317Z,2.50
2022-12-18T06:21:15.296Z,2.60
2022-12-18T06:22:15.324Z,2.50
2022-12-18T06:23:15.530Z,2.50
2022-12-18T06:24:15.323Z,2.50
2022-12-18T06:25:15.247Z,2.60
2022-12-18T06:26:15.289Z,2.60
2022-12-18T06:27:15.262Z,2.40
2022-12-18T06:28:15.234Z,2.50
2022-12-18T06:29:15.573Z,2.50
2022-12-18T06:30:15.232Z,2.80
2022-12-18T06:31:15.244Z,2.80
2022-12-18T06:32:15.186Z,2.70
2022-12-18T06:33:15.157Z,2.60
2022-12-18T06:34:15.173Z,2.40
2022-12-18T06:35:15.403Z,2.80
2022-12-18T06:36:15.153Z,2.90
2022-12-18T06:37:15.161Z,2.70
2022-12-18T06:38:15.106Z,3.00
2022-12-18T06:39:15.118Z,2.80
2022-12-18T06:40:15.086Z,2.70
2022-12-18T06:41:15.591Z,2.70
2022-12-18T06:42:15.091Z,2.80
2022-12-18T06:43:15.084Z,2.70
2022-12-18T06:44:15.067Z,2.60
2022-12-18T06:45:15.072Z,2.60
2022-12-18T06:46:15.109Z,2.70
2022-12-18T06:47:15.049Z,2.70
2022-12-18T06:48:14.998Z,2.70
2022-12-18T06:49:15.205Z,2.80
2022-12-18T06:50:14.994Z,2.90
2022-12-18T06:51:14.978Z,2.90
2022-12-18T06:52:15.120Z,2.80
2022-12-18T06:53:14.956Z,2.70
2022-12-18T06:54:15.152Z,2.60
2022-12-18T06:55:15.060Z,2.80
2022-12-18T06:56:14.933Z,2.70
2022-12-18T06:57:14.908Z,2.70
2022-12-18T06:58:14.897Z,2.60
2022-12-18T06:59:14.914Z,2.80
2022-12-18T07:00:15.539Z,2.60
2022-12-18T07:01:15.293Z,2.70
2022-12-18T07:02:14.922Z,2.60
2022-12-18T07:03:14.880Z,2.80
2022-12-18T07:04:14.844Z,2.70
2022-12-18T07:05:15.155Z,2.80
2022-12-18T07:06:14.895Z,3.10
2022-12-18T07:07:14.800Z,2.80
2022-12-18T07:08:14.768Z,2.60
2022-12-18T07:09:14.806Z,2.80
2022-12-18T07:10:14.757Z,3.00
2022-12-18T07:11:15.011Z,2.80
2022-12-18T07:12:14.759Z,2.80
2022-12-18T07:13:14.730Z,2.90
2022-12-18T07:14:14.756Z,2.90
2022-12-18T07:15:14.769Z,3.00
2022-12-18T07:16:18.646Z,3.20
2022-12-18T07:17:15.720Z,3.10
2022-12-18T07:18:14.669Z,3.10
2022-12-18T07:19:14.667Z,3.00
2022-12-18T07:20:14.640Z,2.70
2022-12-18T07:21:14.670Z,2.80
2022-12-18T07:22:14.866Z,3.10
2022-12-18T07:23:14.619Z,3.00
2022-12-18T07:24:14.635Z,3.10
2022-12-18T07:25:14.626Z,3.00
2022-12-18T07:26:14.606Z,3.00
2022-12-18T07:27:14.616Z,3.10
2022-12-18T07:28:17.353Z,2.90
2022-12-18T07:29:14.584Z,3.10
2022-12-18T07:30:14.557Z,3.10
2022-12-18T07:31:14.621Z,3.00
2022-12-18T07:32:14.535Z,3.50
2022-12-18T07:33:14.899Z,3.40
2022-12-18T07:34:14.491Z,3.40
2022-12-18T07:35:14.859Z,3.20
2022-12-18T07:36:14.486Z,3.30
2022-12-18T07:37:14.593Z,3.70
2022-12-18T07:38:14.463Z,3.50
2022-12-18T07:39:14.786Z,3.60
2022-12-18T07:40:14.420Z,3.30
2022-12-18T07:41:14.421Z,3.30
2022-12-18T07:42:14.400Z,3.30
2022-12-18T07:43:14.639Z,3.30
2022-12-18T07:44:14.384Z,3.50
2022-12-18T07:45:14.379Z,3.20
2022-12-18T07:46:14.394Z,3.70
2022-12-18T07:47:14.387Z,3.90
2022-12-18T07:48:14.566Z,3.80
2022-12-18T07:49:14.330Z,3.90
2022-12-18T07:50:14.336Z,3.90
2022-12-18T07:51:14.341Z,5.30
2022-12-18T07:52:14.292Z,5.00
2022-12-18T07:53:14.348Z,5.20
2022-12-18T07:54:14.263Z,5.00
2022-12-18T07:55:14.287Z,4.20
2022-12-18T07:56:31.220Z,3.50
2022-12-18T07:57:34.096Z,3.30
2022-12-18T07:58:15.480Z,4.60
2022-12-18T07:59:14.247Z,3.60
2022-12-18T08:00:14.190Z,3.60
2022-12-18T08:01:14.356Z,3.50
2022-12-18T08:02:14.283Z,3.50
2022-12-18T08:03:14.219Z,3.50
2022-12-18T08:04:14.457Z,3.50
2022-12-18T08:05:14.177Z,3.50
2022-12-18T08:06:14.131Z,3.00
2022-12-18T08:07:14.408Z,2.90
2022-12-18T08:08:14.140Z,2.80
2022-12-18T08:09:14.112Z,3.00
2022-12-18T08:10:14.318Z,2.90
2022-12-18T08:11:14.118Z,3.00
2022-12-18T08:12:14.081Z,2.90
2022-12-18T08:13:14.071Z,3.00
2022-12-18T08:14:14.088Z,3.20
2022-12-18T08:15:14.069Z,3.10
2022-12-18T08:16:14.078Z,2.80
2022-12-18T08:17:14.033Z,2.90
2022-12-18T08:18:14.568Z,3.10
2022-12-18T08:19:14.221Z,3.00
2022-12-18T08:20:14.355Z,2.70
2022-12-18T08:21:13.979Z,2.60
2022-12-18T08:22:13.979Z,2.90
2022-12-18T08:23:14.295Z,2.60
2022-12-18T08:24:13.933Z,2.80
2022-12-18T08:25:13.941Z,2.40
2022-12-18T08:26:13.942Z,2.80
2022-12-18T08:27:28.980Z,3.10
2022-12-18T08:28:15.130Z,2.60
2022-12-18T08:29:17.327Z,3.00
2022-12-18T08:30:14.874Z,2.80
2022-12-18T08:31:13.905Z,2.90
2022-12-18T08:32:13.939Z,2.80
2022-12-18T08:33:14.195Z,2.90
2022-12-18T08:34:13.850Z,2.90
2022-12-18T08:35:16.459Z,2.70
2022-12-18T08:36:13.802Z,2.90
2022-12-18T08:37:13.830Z,2.80
2022-12-18T08:38:13.809Z,2.90
2022-12-18T08:39:13.781Z,2.80
2022-12-18T08:40:13.780Z,2.50
2022-12-18T08:41:13.953Z,2.50
2022-12-18T08:42:13.733Z,2.70
2022-12-18T08:43:13.733Z,2.60
2022-12-18T08:44:13.712Z,2.90
2022-12-18T08:45:13.714Z,3.60
2022-12-18T08:46:14.178Z,3.50
2022-12-18T08:47:13.721Z,3.10
2022-12-18T08:48:16.641Z,3.40
2022-12-18T08:49:14.709Z,3.10
2022-12-18T08:50:13.873Z,2.70
2022-12-18T08:51:13.654Z,2.70
2022-12-18T08:52:13.627Z,2.80
2022-12-18T08:53:13.651Z,2.60
2022-12-18T08:54:13.602Z,2.70
2022-12-18T08:55:13.633Z,2.80
2022-12-18T08:56:13.831Z,2.20
2022-12-18T08:57:13.584Z,2.70
2022-12-18T08:58:13.810Z,2.50
2022-12-18T08:59:19.575Z,2.60
2022-12-18T09:00:14.560Z,2.40
2022-12-18T09:01:13.626Z,2.60
2022-12-18T09:02:13.789Z,2.40
2022-12-18T09:03:13.582Z,2.20
2022-12-18T09:04:13.485Z,2.20
2022-12-18T09:05:13.512Z,2.30
2022-12-18T09:06:13.496Z,2.20
2022-12-18T09:07:13.497Z,2.20
2022-12-18T09:08:13.462Z,2.10
2022-12-18T09:09:13.483Z,2.20
2022-12-18T09:10:13.442Z,2.10
2022-12-18T09:11:13.441Z,2.20
2022-12-18T09:12:13.395Z,2.00
2022-12-18T09:13:13.606Z,2.00
2022-12-18T09:14:13.367Z,1.90
2022-12-18T09:15:13.375Z,1.90
2022-12-18T09:16:13.704Z,1.90
2022-12-18T09:17:13.411Z,2.00
2022-12-18T09:18:13.326Z,2.10
2022-12-18T09:19:13.326Z,1.80
2022-12-18T09:20:13.335Z,1.90
2022-12-18T09:21:13.305Z,2.00
2022-12-18T09:22:13.287Z,1.90
2022-12-18T09:23:13.285Z,2.00
2022-12-18T09:24:13.269Z,2.10
2022-12-18T09:25:13.463Z,1.80
2022-12-18T09:26:13.457Z,1.90
2022-12-18T09:27:13.237Z,1.90
2022-12-18T09:28:13.234Z,2.00
2022-12-18T09:29:13.215Z,1.90
2022-12-18T09:30:13.187Z,1.90
2022-12-18T09:31:13.264Z,1.70
2022-12-18T09:33:24.852Z,1.60
2022-12-18T09:34:24.155Z,1.60
2022-12-18T09:35:24.143Z,2.00
2022-12-18T09:36:24.157Z,1.90
2022-12-18T09:37:24.151Z,1.60
2022-12-18T09:38:24.132Z,1.80
2022-12-18T09:39:24.206Z,1.80
2022-12-18T09:40:24.085Z,1.70
2022-12-18T09:41:24.086Z,1.50
2022-12-18T09:42:24.064Z,1.70
2022-12-18T09:43:24.035Z,1.80
2022-12-18T09:44:24.129Z,1.80
2022-12-18T09:45:24.235Z,1.70
2022-12-18T09:46:24.100Z,2.00
2022-12-18T09:47:23.995Z,2.00
2022-12-18T09:48:24.022Z,1.70
2022-12-18T09:49:24.003Z,2.00
2022-12-18T09:50:24.517Z,2.00
2022-12-18T09:51:24.155Z,1.90
2022-12-18T09:52:23.945Z,1.90
2022-12-18T09:53:23.954Z,2.00
2022-12-18T09:54:23.925Z,1.80
2022-12-18T09:55:24.152Z,2.10
2022-12-18T09:56:23.928Z,2.00
2022-12-18T09:57:23.909Z,2.10
2022-12-18T09:58:23.883Z,1.90
2022-12-18T09:59:23.858Z,2.00
2022-12-18T10:00:23.856Z,1.90
2022-12-18T10:01:24.311Z,1.80
2022-12-18T10:02:24.069Z,1.60
2022-12-18T10:03:23.807Z,1.80
2022-12-18T10:04:23.842Z,1.80
2022-12-18T10:05:23.998Z,2.00
2022-12-18T10:06:23.815Z,1.80
2022-12-18T10:07:23.785Z,1.90
2022-12-18T10:08:23.758Z,1.90
2022-12-18T10:09:23.767Z,1.70
2022-12-18T10:10:24.268Z,2.00
2022-12-18T10:11:23.717Z,1.90
2022-12-18T10:12:23.744Z,2.10
2022-12-18T10:13:24.152Z,2.00
2022-12-18T10:14:24.035Z,1.90
2022-12-18T10:15:23.706Z,2.10
2022-12-18T10:16:23.719Z,2.00
2022-12-18T10:17:23.659Z,1.60
2022-12-18T10:18:23.667Z,1.80
2022-12-18T10:19:23.629Z,2.10
2022-12-18T10:21:34.895Z,1.60
2022-12-18T10:22:34.622Z,1.70
2022-12-18T10:23:34.581Z,1.80
2022-12-18T10:24:34.601Z,2.00
2022-12-18T10:25:34.573Z,1.90
2022-12-18T10:26:34.887Z,2.00
2022-12-18T10:27:34.547Z,1.90
2022-12-18T10:28:34.538Z,1.90
2022-12-18T10:29:34.507Z,1.90
2022-12-18T10:30:34.505Z,1.70
2022-12-18T10:31:34.580Z,2.20
2022-12-18T10:32:34.502Z,1.70
2022-12-18T10:33:34.806Z,1.80
2022-12-18T10:34:34.458Z,1.70
2022-12-18T10:35:34.434Z,1.40
2022-12-18T10:36:34.455Z,1.60
2022-12-18T10:37:34.414Z,1.80
2022-12-18T10:38:34.417Z,1.50
2022-12-18T10:39:34.725Z,1.60
2022-12-18T10:40:34.389Z,1.80
2022-12-18T10:41:34.366Z,1.40
2022-12-18T10:42:34.384Z,1.60
2022-12-18T10:43:34.338Z,1.70
2022-12-18T10:44:34.562Z,1.90
2022-12-18T10:45:34.317Z,2.00
2022-12-18T10:46:34.369Z,1.40
2022-12-18T10:47:34.316Z,1.70
2022-12-18T10:48:34.324Z,1.50
2022-12-18T10:49:34.296Z,1.70
2022-12-18T10:51:35.277Z,1.20
2022-12-18T10:52:34.275Z,1.30
2022-12-18T10:53:34.229Z,1.40
2022-12-18T10:54:34.507Z,1.50
2022-12-18T10:55:34.200Z,1.40
2022-12-18T10:56:34.208Z,1.50
2022-12-18T10:57:34.180Z,1.60
2022-12-18T10:58:34.206Z,1.80
2022-12-18T10:59:34.179Z,1.60
2022-12-18T11:00:34.196Z,1.50
2022-12-18T11:01:34.314Z,1.50
2022-12-18T11:02:34.412Z,1.60
2022-12-18T11:03:34.136Z,1.50
2022-12-18T11:04:34.150Z,1.60
2022-12-18T11:05:34.468Z,1.50
2022-12-18T11:06:34.097Z,2.10
2022-12-18T11:07:34.065Z,1.80
2022-12-18T11:08:34.061Z,1.60
2022-12-18T11:09:34.351Z,1.80
2022-12-18T11:10:34.050Z,1.80
2022-12-18T11:11:34.025Z,1.70
2022-12-18T11:12:34.231Z,1.80
2022-12-18T11:13:34.027Z,2.20
2022-12-18T11:14:34.033Z,2.30
2022-12-18T11:15:33.974Z,2.30
2022-12-18T11:16:34.301Z,2.30
2022-12-18T11:17:34.000Z,2.10
2022-12-18T11:18:33.943Z,1.70
2022-12-18T11:19:33.943Z,1.80
2022-12-18T11:20:33.921Z,1.70
2022-12-18T11:21:34.290Z,1.50
2022-12-18T11:22:34.126Z,2.00
2022-12-18T11:23:33.920Z,1.50
2022-12-18T11:24:33.877Z,1.50
2022-12-18T11:25:35.451Z,2.50
2022-12-18T11:26:33.845Z,2.40
2022-12-18T11:27:34.104Z,2.50
2022-12-18T11:28:33.861Z,2.20
2022-12-18T11:29:33.825Z,2.10
2022-12-18T11:30:33.805Z,1.80
2022-12-18T11:31:33.889Z,2.10
2022-12-18T11:32:34.115Z,2.10
2022-12-18T11:33:33.784Z,1.80
2022-12-18T11:34:33.756Z,1.90
2022-12-18T11:35:33.763Z,1.50
2022-12-18T11:36:33.736Z,1.70
2022-12-18T11:37:33.735Z,1.70
2022-12-18T11:38:33.916Z,1.80
2022-12-18T11:39:33.716Z,1.70
2022-12-18T11:40:39.292Z,1.70
2022-12-18T11:41:34.721Z,1.50
2022-12-18T11:42:34.024Z,1.50
2022-12-18T11:43:33.694Z,1.60
2022-12-18T11:44:33.644Z,1.50
2022-12-18T11:45:33.673Z,1.80
2022-12-18T11:46:33.682Z,1.70
2022-12-18T11:47:33.656Z,1.70
2022-12-18T11:48:33.835Z,1.70
2022-12-18T11:49:33.598Z,1.80
2022-12-18T11:50:33.577Z,1.80
2022-12-18T11:51:33.614Z,1.80
2022-12-18T11:52:33.573Z,1.80
2022-12-18T11:53:33.557Z,1.90
2022-12-18T11:54:33.738Z,1.60
2022-12-18T11:55:33.529Z,1.90
2022-12-18T11:56:33.547Z,1.80
2022-12-18T11:57:33.535Z,1.90
2022-12-18T11:58:33.736Z,1.70
2022-12-18T11:59:33.489Z,1.80
2022-12-18T12:00:33.485Z,1.70
2022-12-18T12:01:36.503Z,1.80
2022-12-18T12:02:34.758Z,1.70
2022-12-18T12:03:33.490Z,1.50
2022-12-18T12:04:33.497Z,1.70
2022-12-18T12:05:33.419Z,1.90
2022-12-18T12:06:33.415Z,1.80
2022-12-18T12:07:33.418Z,2.10
2022-12-18T12:08:33.571Z,2.40
2022-12-18T12:09:33.397Z,2.10
2022-12-18T12:10:33.377Z,2.20
2022-12-18T12:11:33.367Z,2.10
2022-12-18T12:12:33.357Z,2.00
2022-12-18T12:13:33.521Z,2.00
2022-12-18T12:14:33.300Z,1.90
2022-12-18T12:15:33.338Z,1.80
2022-12-18T12:16:33.387Z,2.10
2022-12-18T12:17:33.281Z,1.80
2022-12-18T12:18:33.272Z,1.70
2022-12-18T12:19:33.281Z,2.10
2022-12-18T12:20:36.038Z,3.40
2022-12-18T12:21:33.250Z,2.80
2022-12-18T12:22:33.234Z,2.00
2022-12-18T12:23:33.215Z,2.00
2022-12-18T12:24:33.204Z,1.90
2022-12-18T12:25:33.183Z,2.20
2022-12-18T12:26:33.173Z,2.00
2022-12-18T12:27:33.238Z,2.00
2022-12-18T12:28:33.181Z,1.80
2022-12-18T12:29:33.194Z,1.80
2022-12-18T12:30:33.141Z,1.90
2022-12-18T12:31:33.197Z,1.80
2022-12-18T12:32:33.093Z,2.10
2022-12-18T12:33:33.119Z,1.90
2022-12-18T12:34:33.345Z,1.90
2022-12-18T12:35:33.065Z,1.90
2022-12-18T12:36:33.045Z,2.00
2022-12-18T12:37:33.073Z,2.00
2022-12-18T12:38:33.065Z,2.10
2022-12-18T12:39:33.052Z,2.00
2022-12-18T12:41:34.008Z,2.00
2022-12-18T12:42:33.002Z,2.30
2022-12-18T12:43:32.975Z,2.00
2022-12-18T12:44:32.945Z,2.30
2022-12-18T12:45:33.231Z,2.00
2022-12-18T12:46:32.962Z,2.10
2022-12-18T12:47:32.926Z,2.00
2022-12-18T12:48:32.907Z,2.30
2022-12-18T12:49:37.548Z,2.10
2022-12-18T12:50:34.097Z,2.20
2022-12-18T12:51:32.914Z,2.30
2022-12-18T12:52:32.875Z,2.10
2022-12-18T12:53:32.868Z,2.40
2022-12-18T12:54:32.837Z,2.10
2022-12-18T12:55:32.838Z,2.10
2022-12-18T12:56:32.868Z,2.20
2022-12-18T12:57:32.822Z,2.30
2022-12-18T12:58:32.813Z,2.10
2022-12-18T12:59:33.187Z,2.40
2022-12-18T13:00:32.771Z,2.20
2022-12-18T13:01:32.872Z,2.50
2022-12-18T13:02:32.800Z,2.30
2022-12-18T13:03:32.750Z,2.30
2022-12-18T13:04:32.743Z,2.60
2022-12-18T13:05:32.964Z,2.40
2022-12-18T13:06:32.700Z,2.50
2022-12-18T13:07:32.899Z,2.90
2022-12-18T13:08:33.375Z,2.70
2022-12-18T13:09:32.679Z,2.30
2022-12-18T13:10:32.674Z,2.60
2022-12-18T13:11:32.664Z,2.50
2022-12-18T13:12:33.450Z,2.60
2022-12-18T13:13:32.968Z,2.70
2022-12-18T13:14:32.611Z,3.40
2022-12-18T13:15:32.610Z,3.40
2022-12-18T13:16:32.582Z,2.80
2022-12-18T13:17:32.849Z,2.60
2022-12-18T13:18:32.899Z,2.50
2022-12-18T13:19:32.561Z,2.50
2022-12-18T13:20:32.543Z,2.50
2022-12-18T13:21:32.571Z,2.80
2022-12-18T13:22:32.541Z,2.50